Terminal Aerodrome Forecast
Issued by NWS

Home | Current Version | Previous Version | Text Only | Print | Product List | Glossary On
Versions: 1 2 3 4 5 6 7 8 9 10 11 12 13 14 15 16 17 18 19 20 21 22 23 24 25 26 27 28 29
000
FTUS41 KCTP 061612 AAA
TAFBFD
TAF AMD
KBFD 061612Z 0616/0712 03010G26KT P6SM VCSH OVC050
     FM062000 35005KT 5SM -RA OVC025
     FM070600 VRB03KT 3SM -RADZ BR OVC005=

USA.gov is the U.S. government's official web portal to all federal, state and local government web resources and services.